KVYS/VYS METAR and TAF weather

Enter ICAO airport designator
Station Type Date Time Source
KVYS METAR 2019/04/24 22:15 UTC NOAA

KVYS 242215Z AUTO 17008KT 10SM BKN044 OVC050 13/05 A2989 RMK AO2 T01300047


Station Type Date Time Source
KVYS Decoded METAR 2019/04/24 22:15 UTC NOAA

Peru, Illinois Valley Regional-Walter A Duncan Field Airport, IL, United States (KVYS) 41-21-07N 089-09-11W
Apr 24, 2019 - 06:15 PM EDT / 2019.04.24 2215 UTC
Wind: from the S (170 degrees) at 9 MPH (8 KT):0
Visibility: 10 mile(s):0
Sky conditions: overcast
Temperature: 55.4 F (13.0 C)
Dew Point: 40.5 F (4.7 C)
Relative Humidity: 57%
Pressure (altimeter): 29.89 in. Hg (1012 hPa)
ob: KVYS 242215Z AUTO 17008KT 10SM BKN044 OVC050 13/05 A2989 RMK AO2 T01300047
cycle: 22

Station Type Date Time Source
KVYS TAF UTC NOAA

Error!

Example: see airport list